Terminal Aerodrome Forecast
Issued by NWS

Home | Current Version | Previous Version | Text Only | Print | Product List | Glossary On
Versions: 1 2 3 4 5 6 7 8 9 10 11 12 13 14 15 16
000
FTUS44 KLUB 311741
TAFCDS
TAF
KCDS 311741Z 3118/0118 14008KT 3SM -RA OVC005
     FM010000 17006KT 3SM BR OVC007
     FM011300 35016KT P6SM FEW010=

USA.gov is the U.S. government's official web portal to all federal, state and local government web resources and services.